Time;durP1;ratioP1;P1;durP2;ratioP2;P2;SDS_P1;SDS_P2;PMS_P1;PMS_P2;Temp;Humidity;BMP_temperature;BMP_pressure;BME280_temperature;BME280_humidity;BME280_pressure;Samples;Min_cycle;Max_cycle;Signal;HPM_P1;HPM_P2
2023/04/04 00:00:08;;;;;;;3.70;2.13;;;;;;;0.11;99.58;101247.91;5023211;28;20198;-59
2023/04/04 00:02:33;;;;;;;4.37;1.53;;;;;;;0.16;99.50;101242.88;5047873;28;20192;-59
2023/04/04 00:04:59;;;;;;;3.90;2.10;;;;;;;0.15;98.96;101244.56;5033725;28;20265;-59
2023/04/04 00:07:24;;;;;;;4.93;2.00;;;;;;;0.11;99.35;101239.47;5033912;28;20455;-59
2023/04/04 00:09:50;;;;;;;3.20;1.80;;;;;;;0.04;99.52;101236.06;5033654;28;20218;-58
2023/04/04 00:12:15;;;;;;;8.33;2.47;;;;;;;0.02;100.00;101230.13;5022079;28;20217;-58
2023/04/04 00:14:41;;;;;;;6.63;2.03;;;;;;;-0.03;99.26;101234.31;5033277;28;20649;-58
2023/04/04 00:17:07;;;;;;;7.13;1.90;;;;;;;0.00;99.59;101226.75;5033777;28;20232;-58
2023/04/04 00:19:32;;;;;;;2.97;1.77;;;;;;;-0.03;99.24;101222.50;5032076;28;20194;-58
2023/04/04 00:21:59;;;;;;;3.17;2.07;;;;;;;-0.04;99.72;101222.50;5037926;28;20228;-58
2023/04/04 00:24:27;;;;;;;4.27;2.07;;;;;;;-0.07;99.65;101225.00;5033534;28;20182;-58
2023/04/04 00:26:53;;;;;;;2.10;1.60;;;;;;;-0.06;99.20;101225.00;5033261;28;20240;-58
2023/04/04 00:29:19;;;;;;;4.10;2.27;;;;;;;-0.06;99.77;101221.66;5033164;28;20584;-59
2023/04/04 00:31:44;;;;;;;4.40;1.70;;;;;;;-0.07;98.75;101222.47;5036332;28;20221;-57
2023/04/04 00:34:10;;;;;;;2.63;1.77;;;;;;;-0.06;98.58;101216.59;5034868;28;20192;-58
2023/04/04 00:36:37;;;;;;;5.87;2.23;;;;;;;-0.09;99.50;101212.31;5033212;28;20224;-58
2023/04/04 00:39:02;;;;;;;4.63;2.10;;;;;;;-0.14;99.85;101219.03;5047837;28;20252;-58
2023/04/04 00:41:28;;;;;;;2.43;1.90;;;;;;;-0.21;100.00;101218.16;5033753;28;20691;-58
2023/04/04 00:43:54;;;;;;;3.27;1.97;;;;;;;-0.22;100.00;101208.88;5036553;28;20186;-57
2023/04/04 00:46:24;;;;;;;2.00;1.80;;;;;;;-0.15;100.00;101207.22;5033054;28;20190;-57
2023/04/04 00:48:50;;;;;;;3.10;1.93;;;;;;;-0.17;100.00;101209.75;5032832;28;20186;-58
2023/04/04 00:51:16;;;;;;;5.00;2.00;;;;;;;-0.21;100.00;101208.03;5032257;28;20238;-57
2023/04/04 00:53:45;;;;;;;3.53;2.10;;;;;;;-0.14;100.00;101205.56;5038162;28;20593;-59
2023/04/04 00:56:13;;;;;;;2.97;2.03;;;;;;;-0.24;100.00;101202.09;5032815;28;20613;-58
2023/04/04 00:58:40;;;;;;;4.13;1.87;;;;;;;-0.28;100.00;101206.28;5047861;28;20190;-59
2023/04/04 01:01:05;;;;;;;4.83;2.03;;;;;;;-0.20;100.00;101208.88;5041161;28;20304;-58
2023/04/04 01:03:34;;;;;;;3.73;2.30;;;;;;;-0.29;100.00;101199.53;5030880;28;20648;-58
2023/04/04 01:06:02;;;;;;;4.47;2.30;;;;;;;-0.33;100.00;101203.72;5015311;28;20186;-58
2023/04/04 01:08:28;;;;;;;2.90;2.30;;;;;;;-0.35;100.00;101209.59;5047187;28;20194;-58
2023/04/04 01:10:55;;;;;;;2.50;1.67;;;;;;;-0.29;100.00;101204.59;5020728;28;20241;-58
2023/04/04 01:13:21;;;;;;;3.00;2.00;;;;;;;-0.31;100.00;101200.38;5020820;28;20197;-57
2023/04/04 01:15:47;;;;;;;4.37;1.80;;;;;;;-0.39;100.00;101192.72;5027615;28;20202;-58
2023/04/04 01:18:17;;;;;;;2.40;1.77;;;;;;;-0.36;100.00;101198.66;5027761;28;20175;-58
2023/04/04 01:21:05;;;;;;;3.23;1.80;;;;;;;-0.47;100.00;101204.44;5033708;28;20225;-59
2023/04/04 01:23:47;;;;;;;4.00;2.33;;;;;;;-0.49;100.00;101199.38;5043438;28;20588;-58
2023/04/04 01:26:14;;;;;;;4.63;2.17;;;;;;;-0.40;100.00;101198.59;5031414;28;20202;-58
2023/04/04 01:28:39;;;;;;;2.93;1.90;;;;;;;-0.40;100.00;101194.38;5027615;28;20301;-59
2023/04/04 01:31:10;;;;;;;3.70;2.10;;;;;;;-0.43;100.00;101196.06;5028545;28;20299;-58
2023/04/04 01:33:42;;;;;;;3.50;2.23;;;;;;;-0.42;100.00;101191.03;5038063;28;20182;-58
2023/04/04 01:36:35;;;;;;;2.80;2.20;;;;;;;-0.46;100.00;101194.34;5034547;28;20313;-58
2023/04/04 01:39:27;;;;;;;6.47;2.43;;;;;;;-0.46;100.00;101184.22;5030028;28;20190;-59
2023/04/04 01:41:55;;;;;;;4.63;2.17;;;;;;;-0.47;100.00;101181.69;5040265;28;20232;-58
2023/04/04 01:51:03;;;;;;;3.40;2.50;;;;;;;-0.55;100.00;101184.16;5028164;28;20231;-58
2023/04/04 01:53:29;;;;;;;3.13;1.93;;;;;;;-0.52;100.00;101186.69;5039004;28;20182;-59
2023/04/04 01:55:55;;;;;;;4.63;2.30;;;;;;;-0.50;100.00;101178.31;5031845;28;20170;-58
2023/04/04 01:58:21;;;;;;;4.53;2.27;;;;;;;-0.51;100.00;101183.34;5031770;28;20620;-58
2023/04/04 02:00:46;;;;;;;2.57;1.87;;;;;;;-0.60;100.00;101184.09;5027154;28;20315;-58
2023/04/04 02:03:11;;;;;;;5.43;2.70;;;;;;;-0.54;100.00;101186.69;5040912;28;20637;-58
2023/04/04 02:05:36;;;;;;;3.37;2.47;;;;;;;-0.54;100.00;101181.63;5031476;28;20178;-58
2023/04/04 02:08:02;;;;;;;4.13;2.23;;;;;;;-0.49;100.00;101176.63;5031687;28;20239;-57
2023/04/04 02:10:28;;;;;;;5.07;2.43;;;;;;;-0.55;100.00;101187.53;5024078;28;20243;-57
2023/04/04 02:12:54;;;;;;;3.83;2.13;;;;;;;-0.60;100.00;101189.16;5043030;28;20174;-59
2023/04/04 02:15:19;;;;;;;4.00;2.37;;;;;;;-0.60;100.00;101186.63;5030761;28;20220;-58
2023/04/04 02:17:48;;;;;;;3.03;2.37;;;;;;;-0.66;100.00;101186.59;5046959;28;20184;-58
2023/04/04 02:20:14;;;;;;;3.77;2.93;;;;;;;-0.62;100.00;101193.38;5022841;28;20205;-59
2023/04/04 02:22:39;;;;;;;2.87;2.20;;;;;;;-0.64;100.00;101195.03;5044634;28;20174;-58
2023/04/04 02:25:05;;;;;;;3.67;2.40;;;;;;;-0.68;100.00;101195.84;5031432;28;20549;-58
2023/04/04 02:27:31;;;;;;;4.97;2.40;;;;;;;-0.68;100.00;101194.16;5046595;28;20241;-57
2023/04/04 02:29:56;;;;;;;3.70;2.43;;;;;;;-0.73;100.00;101195.78;5031300;28;20182;-58
2023/04/04 02:32:23;;;;;;;5.60;2.57;;;;;;;-0.62;100.00;101200.09;5036429;28;20221;-58
2023/04/04 02:34:48;;;;;;;4.13;2.93;;;;;;;-0.71;100.00;101199.19;5048118;28;20713;-57
2023/04/04 02:37:13;;;;;;;4.60;2.67;;;;;;;-0.71;100.00;101199.19;5035456;28;20269;-58
2023/04/04 02:39:39;;;;;;;2.90;2.07;;;;;;;-0.74;100.00;101194.09;5035487;28;20178;-58
2023/04/04 02:42:04;;;;;;;4.57;2.63;;;;;;;-0.73;100.00;101189.88;5040389;28;20347;-59
2023/04/04 02:44:29;;;;;;;4.40;2.93;;;;;;;-0.69;100.00;101194.97;5034998;28;20261;-58
2023/04/04 02:46:55;;;;;;;5.50;2.40;;;;;;;-0.67;100.00;101187.41;5035583;28;20320;-57
2023/04/04 02:49:20;;;;;;;4.53;2.63;;;;;;;-0.70;100.00;101193.28;5033873;28;20185;-57
2023/04/04 02:51:45;;;;;;;6.37;2.70;;;;;;;-0.71;100.00;101188.22;5038359;28;20379;-58
2023/04/04 02:54:11;;;;;;;3.70;2.20;;;;;;;-0.71;100.00;101178.97;5036877;28;20232;-58
2023/04/04 03:00:39;;;;;;;3.87;2.00;;;;;;;-0.78;100.00;101181.41;5028334;28;20203;-59
2023/04/04 03:03:04;;;;;;;5.13;2.53;;;;;;;-0.81;100.00;101177.19;4987988;28;20218;-58
2023/04/04 03:05:33;;;;;;;3.17;2.77;;;;;;;-0.80;100.00;101183.09;5035113;28;20181;-57
2023/04/04 03:07:58;;;;;;;3.13;2.77;;;;;;;-0.80;100.00;101176.34;5035146;28;20343;-58
2023/04/04 03:10:25;;;;;;;3.63;2.87;;;;;;;-0.82;100.00;101170.41;5027067;28;20320;-59
2023/04/04 03:12:51;;;;;;;5.20;2.47;;;;;;;-0.80;100.00;101175.50;5033243;28;20182;-58
2023/04/04 03:15:17;;;;;;;6.30;3.00;;;;;;;-0.80;100.00;101170.47;5024961;28;20207;-58
2023/04/04 03:17:42;;;;;;;4.47;2.87;;;;;;;-0.84;100.00;101172.09;5033483;28;20197;-58
2023/04/04 03:20:08;;;;;;;3.73;2.50;;;;;;;-0.85;100.00;101166.19;5025392;28;20182;-58
2023/04/04 03:22:33;;;;;;;5.43;2.90;;;;;;;-0.86;100.00;101168.72;5048596;28;20186;-59
2023/04/04 03:24:59;;;;;;;2.57;2.37;;;;;;;-0.84;100.00;101169.59;5034676;28;20633;-59
2023/04/04 03:27:24;;;;;;;4.73;2.37;;;;;;;-0.85;100.00;101167.88;5035051;28;20185;-59
2023/04/04 03:29:49;;;;;;;4.07;2.30;;;;;;;-0.94;100.00;101163.59;5034238;28;20182;-59
2023/04/04 03:32:16;;;;;;;3.80;2.97;;;;;;;-0.96;100.00;101160.19;5018839;28;20647;-58
2023/04/04 03:34:42;;;;;;;2.70;2.50;;;;;;;-0.95;100.00;101159.38;5048285;28;20522;-58
2023/04/04 03:37:07;;;;;;;5.77;2.70;;;;;;;-0.93;100.00;101162.75;5034776;28;20193;-58
2023/04/04 03:39:32;;;;;;;5.27;3.10;;;;;;;-0.92;100.00;101161.91;5034195;28;20292;-58
2023/04/04 03:41:58;;;;;;;2.57;2.37;;;;;;;-0.96;100.00;101167.78;5038523;28;20294;-58
2023/04/04 03:44:23;;;;;;;6.37;2.70;;;;;;;-1.03;100.00;101160.94;5034565;28;20594;-58
2023/04/04 03:46:48;;;;;;;3.43;2.70;;;;;;;-0.96;100.00;101159.34;5034018;28;20640;-59
2023/04/04 03:49:13;;;;;;;3.93;2.70;;;;;;;-0.95;100.00;101164.41;5034178;28;20182;-58
2023/04/04 03:51:39;;;;;;;5.10;2.60;;;;;;;-0.92;100.00;101164.44;5036643;28;20225;-60
2023/04/04 03:54:04;;;;;;;2.80;2.60;;;;;;;-0.93;100.00;101161.91;5036797;28;20189;-58
2023/04/04 03:56:32;;;;;;;3.07;2.73;;;;;;;-1.00;100.00;101154.25;5034320;28;20186;-59
2023/04/04 03:58:58;;;;;;;4.17;3.07;;;;;;;-1.02;100.00;101155.06;5033814;28;20201;-58
2023/04/04 04:01:23;;;;;;;4.97;3.00;;;;;;;-1.00;100.00;101149.22;5044911;28;20248;-58
2023/04/04 04:03:48;;;;;;;2.87;2.50;;;;;;;-1.02;100.00;101150.88;5057732;28;20582;-60
2023/04/04 04:06:14;;;;;;;3.17;2.63;;;;;;;-1.07;100.00;101151.66;5053225;28;20186;-59
2023/04/04 04:08:39;;;;;;;3.60;2.77;;;;;;;-1.16;100.00;101160.81;5052448;28;20234;-57
2023/04/04 04:11:05;;;;;;;5.07;2.60;;;;;;;-1.05;100.00;101158.41;5050998;28;20235;-58
2023/04/04 04:13:31;;;;;;;2.70;2.50;;;;;;;-1.04;100.00;101159.25;5051147;28;20178;-57
2023/04/04 04:15:56;;;;;;;4.33;2.90;;;;;;;-1.04;100.00;101150.03;5047723;28;20197;-58
2023/04/04 04:18:21;;;;;;;3.27;2.67;;;;;;;-1.04;100.00;101151.69;5048991;28;20198;-58
2023/04/04 04:20:47;;;;;;;3.83;2.30;;;;;;;-1.07;100.00;101146.63;5029525;28;20243;-58
2023/04/04 04:23:12;;;;;;;4.73;2.60;;;;;;;-1.12;100.00;101138.97;5042443;28;20185;-60
2023/04/04 04:25:37;;;;;;;3.90;3.20;;;;;;;-1.01;100.00;101139.94;5032271;28;20182;-58
2023/04/04 04:28:05;;;;;;;3.37;2.87;;;;;;;-0.96;100.00;101145.03;5033449;28;20863;-59
2023/04/04 04:30:30;;;;;;;3.20;2.40;;;;;;;-1.11;100.00;101144.91;5042063;28;20236;-59
2023/04/04 04:32:56;;;;;;;3.60;2.77;;;;;;;-1.13;100.00;101144.84;5048066;28;20178;-58
2023/04/04 04:35:21;;;;;;;3.37;2.63;;;;;;;-1.12;100.00;101144.03;5033538;28;20642;-58
2023/04/04 04:37:46;;;;;;;5.63;2.70;;;;;;;-1.17;100.00;101145.66;5033318;28;20186;-57
2023/04/04 04:40:13;;;;;;;5.10;2.73;;;;;;;-1.09;100.00;101149.13;5039664;28;20672;-59
2023/04/04 04:42:45;;;;;;;5.03;3.00;;;;;;;-1.14;100.00;101146.53;5031066;28;20178;-58
2023/04/04 04:45:11;;;;;;;11.10;3.73;;;;;;;-1.27;100.00;101152.28;5033009;28;20269;-58
2023/04/04 04:47:36;;;;;;;3.73;3.07;;;;;;;-1.16;100.00;101153.25;5032995;28;20265;-57
2023/04/04 04:50:02;;;;;;;3.23;2.90;;;;;;;-1.13;100.00;101152.44;5033197;28;20182;-57
2023/04/04 04:52:28;;;;;;;4.07;3.00;;;;;;;-1.17;100.00;101155.75;5039953;28;20278;-56
2023/04/04 04:54:54;;;;;;;6.93;3.13;;;;;;;-1.19;100.00;101150.69;5065507;28;20268;-56
2023/04/04 04:57:20;;;;;;;3.60;3.03;;;;;;;-1.06;100.00;101155.88;5047402;28;20182;-57
2023/04/04 04:59:45;;;;;;;3.57;2.93;;;;;;;-1.20;100.00;101150.69;5043789;28;20666;-57
2023/04/04 05:02:10;;;;;;;8.87;2.93;;;;;;;-1.23;100.00;101156.53;5049609;28;20227;-58
2023/04/04 05:04:35;;;;;;;3.50;3.20;;;;;;;-1.07;100.00;101159.25;5044422;28;20185;-58
2023/04/04 05:07:01;;;;;;;3.33;2.50;;;;;;;-1.12;100.00;101160.88;5046088;28;20173;-58
2023/04/04 05:09:26;;;;;;;3.07;2.50;;;;;;;-1.09;100.00;101158.38;5048045;28;20181;-57
2023/04/04 05:11:51;;;;;;;4.87;2.80;;;;;;;-1.12;100.00;101164.22;5057307;28;20310;-57
2023/04/04 05:14:17;;;;;;;4.63;2.83;;;;;;;-1.07;100.00;101169.34;5038587;28;20216;-57
2023/04/04 05:16:42;;;;;;;4.03;2.90;;;;;;;-1.11;100.00;101165.94;5046710;28;20202;-58
2023/04/04 05:19:07;;;;;;;4.30;2.50;;;;;;;-1.06;100.00;101166.81;5047623;28;20177;-57
2023/04/04 05:21:33;;;;;;;5.33;3.00;;;;;;;-1.09;100.00;101166.81;5037325;28;20774;-58
2023/04/04 05:23:58;;;;;;;3.33;3.03;;;;;;;-1.02;100.00;101160.13;5035476;28;20190;-58
2023/04/04 05:26:24;;;;;;;4.40;2.60;;;;;;;-0.96;100.00;101165.25;5030807;28;20536;-59
2023/04/04 05:28:49;;;;;;;8.43;2.80;;;;;;;-0.91;100.00;101162.78;5032056;28;20247;-58
2023/04/04 05:31:14;;;;;;;5.00;2.50;;;;;;;-0.87;100.00;101161.97;5035095;28;20258;-59
2023/04/04 05:33:39;;;;;;;3.37;2.63;;;;;;;-0.75;99.19;101161.25;5037540;28;20250;-58
2023/04/04 05:36:05;;;;;;;4.17;2.67;;;;;;;-0.74;98.04;101165.47;5030823;28;20179;-58
2023/04/04 05:38:30;;;;;;;4.53;2.90;;;;;;;-0.68;97.01;101157.94;5031883;28;20182;-58
2023/04/04 05:40:55;;;;;;;4.00;2.60;;;;;;;-0.62;97.35;101154.59;5028049;28;20223;-58
2023/04/04 05:43:20;;;;;;;5.00;2.60;;;;;;;-0.58;96.93;101157.19;5040169;28;20597;-58
2023/04/04 05:45:46;;;;;;;4.80;2.23;;;;;;;-0.52;95.78;101148.78;5031737;28;20178;-58
2023/04/04 05:48:11;;;;;;;5.10;2.73;;;;;;;-0.41;96.14;101156.47;5032088;28;20190;-57
2023/04/04 05:50:36;;;;;;;3.87;2.83;;;;;;;-0.31;95.61;101157.38;5025638;28;20286;-58
2023/04/04 05:53:03;;;;;;;5.90;2.70;;;;;;;-0.22;96.23;101158.28;5042202;28;20179;-58
2023/04/04 05:55:28;;;;;;;4.53;2.47;;;;;;;-0.13;95.29;101154.16;5031049;28;20197;-58
2023/04/04 05:57:55;;;;;;;4.93;3.13;;;;;;;-0.04;94.70;101157.59;5031718;28;20634;-60
2023/04/04 06:00:21;;;;;;;5.63;3.42;;;;;;;0.24;93.88;101155.19;5021316;28;20500;-66
2023/04/04 06:02:47;;;;;;;3.00;2.70;;;;;;;0.02;92.81;101150.88;5013323;28;20265;-59
2023/04/04 06:05:12;;;;;;;6.87;3.17;;;;;;;0.02;90.25;101153.41;5031713;28;20309;-58
2023/04/04 06:07:37;;;;;;;3.63;2.40;;;;;;;0.03;89.92;101155.09;5031539;28;20213;-58
2023/04/04 06:10:06;;;;;;;3.07;2.73;;;;;;;0.14;88.42;101163.59;5025935;28;20584;-58
2023/04/04 06:12:32;;;;;;;3.50;2.40;;;;;;;0.36;87.73;101161.16;5029054;28;20188;-59
2023/04/04 06:14:57;;;;;;;3.23;2.40;;;;;;;0.36;85.48;101154.44;5030985;28;20631;-58
2023/04/04 06:17:23;;;;;;;4.20;2.30;;;;;;;0.57;85.38;101165.47;5031277;28;20222;-57
2023/04/04 06:19:48;;;;;;;3.73;2.50;;;;;;;0.59;83.33;101167.16;5046395;28;20433;-58
2023/04/04 06:22:16;;;;;;;2.70;2.50;;;;;;;0.66;81.20;101170.56;5035175;28;20476;-59
2023/04/04 06:24:42;;;;;;;4.43;2.30;;;;;;;0.63;81.51;101166.34;5030198;28;20182;-59
2023/04/04 06:27:07;;;;;;;3.40;2.70;;;;;;;0.71;81.20;101173.97;5030867;28;20190;-59
2023/04/04 06:29:33;;;;;;;3.30;2.50;;;;;;;0.77;78.77;101173.13;5031413;28;20189;-58
2023/04/04 06:31:58;;;;;;;2.97;2.30;;;;;;;0.99;76.13;101170.66;5035241;28;20655;-63
2023/04/04 06:34:23;;;;;;;2.43;2.23;;;;;;;1.03;75.96;101178.28;5031286;28;20217;-59
2023/04/04 06:36:49;;;;;;;2.33;2.13;;;;;;;1.15;75.69;101174.06;5031245;28;20195;-60
2023/04/04 06:39:14;;;;;;;3.30;2.30;;;;;;;1.24;73.09;101181.69;5031175;28;20181;-59
2023/04/04 06:41:39;;;;;;;3.37;2.03;;;;;;;1.38;72.63;101174.13;5033036;28;20338;-59
2023/04/04 06:44:05;;;;;;;3.03;2.13;;;;;;;1.64;67.90;101174.13;5032833;28;20240;-58
2023/04/04 06:46:31;;;;;;;3.40;2.00;;;;;;;2.18;64.80;101179.09;5030686;28;20193;-59
2023/04/04 06:48:57;;;;;;;3.43;2.57;;;;;;;2.60;59.69;101178.97;5038434;28;20231;-58
2023/04/04 06:51:22;;;;;;;4.03;2.30;;;;;;;2.86;57.91;101178.00;5030624;28;20776;-58
2023/04/04 06:53:49;;;;;;;5.27;2.27;;;;;;;3.92;53.56;101178.94;5035408;28;20206;-58
2023/04/04 06:56:15;;;;;;;3.57;2.53;;;;;;;4.03;51.42;101177.13;5030874;28;20182;-58
2023/04/04 06:58:41;;;;;;;4.13;1.73;;;;;;;5.17;49.56;101172.31;5030520;28;20216;-58
2023/04/04 07:01:07;;;;;;;6.60;2.67;;;;;;;5.64;47.96;101181.78;5018859;28;20317;-57
2023/04/04 07:03:32;;;;;;;6.17;2.03;;;;;;;5.81;46.87;101177.25;5026237;28;20264;-58
2023/04/04 07:05:57;;;;;;;2.50;1.67;;;;;;;5.27;47.94;101184.94;5030562;28;20178;-59
2023/04/04 07:08:22;;;;;;;3.90;2.00;;;;;;;5.50;47.42;101179.47;5030474;28;20178;-58
2023/04/04 07:10:48;;;;;;;3.17;2.30;;;;;;;4.88;48.70;101180.38;5026082;28;20240;-58
2023/04/04 07:13:13;;;;;;;3.60;2.30;;;;;;;5.43;47.76;101182.97;5039497;28;20178;-58
2023/04/04 07:15:38;;;;;;;3.17;2.30;;;;;;;5.77;46.29;101178.16;5025143;28;20240;-58
2023/04/04 07:18:04;;;;;;;3.23;2.07;;;;;;;5.79;45.72;101180.69;5041636;28;20228;-59
2023/04/04 07:20:29;;;;;;;2.57;2.20;;;;;;;6.28;45.54;101182.38;5024859;28;20225;-58
2023/04/04 07:22:54;;;;;;;2.97;2.03;;;;;;;6.30;45.32;101184.91;5045705;28;20680;-59
2023/04/04 07:25:20;;;;;;;3.13;2.30;;;;;;;7.00;44.11;101179.22;5034515;28;20186;-59
2023/04/04 07:27:45;;;;;;;4.20;2.10;;;;;;;6.57;43.86;101175.00;5034125;28;20178;-58
2023/04/04 07:30:11;;;;;;;2.83;2.13;;;;;;;6.85;43.96;101184.69;5020748;28;20621;-58
2023/04/04 07:32:37;;;;;;;3.13;2.33;;;;;;;6.93;42.78;101175.94;5049591;28;20275;-58
2023/04/04 07:35:06;;;;;;;3.20;2.43;;;;;;;7.59;41.98;101180.38;5040787;28;20594;-59
2023/04/04 07:37:32;;;;;;;5.60;2.43;;;;;;;7.75;41.59;101180.84;5053664;28;20192;-59
2023/04/04 07:39:58;;;;;;;3.40;2.10;;;;;;;8.93;39.38;101186.19;5069147;28;20217;-60
2023/04/04 07:42:24;;;;;;;3.37;2.00;;;;;;;7.68;39.28;101184.47;5058176;28;20660;-59
2023/04/04 07:44:50;;;;;;;3.73;2.17;;;;;;;7.19;41.00;101189.84;5053687;28;20204;-61
2023/04/04 07:47:15;;;;;;;4.50;2.33;;;;;;;6.07;43.48;101188.75;5067028;28;20208;-58
2023/04/04 07:49:41;;;;;;;4.40;2.60;;;;;;;6.88;41.93;101189.72;5048640;28;20251;-58
2023/04/04 07:52:06;;;;;;;2.03;1.83;;;;;;;6.11;43.16;101187.81;5038575;28;20642;-58
2023/04/04 07:54:31;;;;;;;2.87;2.07;;;;;;;6.73;42.98;101184.03;5048616;28;20182;-60
2023/04/04 07:56:56;;;;;;;3.70;2.07;;;;;;;6.38;42.91;101192.44;5033595;28;20205;-58
2023/04/04 07:59:22;;;;;;;3.47;2.00;;;;;;;6.76;42.67;101188.25;5033796;28;20192;-57
2023/04/04 08:01:47;;;;;;;3.03;2.00;;;;;;;6.81;41.62;101181.34;5037015;28;20676;-59
2023/04/04 08:04:12;;;;;;;3.90;2.30;;;;;;;6.25;42.95;101173.94;5034935;28;20205;-59
2023/04/04 08:06:38;;;;;;;3.97;2.30;;;;;;;6.83;42.44;101173.63;5032915;28;20189;-58
2023/04/04 08:09:03;;;;;;;3.13;2.10;;;;;;;7.04;41.69;101170.56;5032988;28;20173;-62
2023/04/04 08:11:29;;;;;;;5.37;2.10;;;;;;;7.20;41.58;101175.34;5033848;28;20241;-58
2023/04/04 08:13:54;;;;;;;2.70;1.80;;;;;;;7.24;41.14;101169.28;5037625;28;20182;-60
2023/04/04 08:16:20;;;;;;;4.30;1.90;;;;;;;7.69;41.07;101170.75;5033024;28;20206;-60
2023/04/04 08:18:45;;;;;;;3.67;2.30;;;;;;;7.92;40.72;101167.59;5033155;28;20276;-59
2023/04/04 08:21:10;;;;;;;4.07;2.17;;;;;;;9.18;39.43;101164.91;5031070;28;20295;-58
2023/04/04 08:23:36;;;;;;;3.33;1.80;;;;;;;10.01;37.00;101159.56;5039432;28;20273;-59
2023/04/04 08:26:01;;;;;;;4.37;2.20;;;;;;;9.76;37.15;101161.28;5033335;28;20182;-59
2023/04/04 08:28:26;;;;;;;3.40;2.00;;;;;;;8.47;37.78;101167.84;5033149;28;20189;-59
2023/04/04 08:30:54;;;;;;;4.73;2.40;;;;;;;8.83;38.24;101171.94;5032942;28;20270;-60
2023/04/04 08:33:21;;;;;;;2.77;1.90;;;;;;;9.26;36.87;101167.22;5040420;28;20194;-60
2023/04/04 08:35:46;;;;;;;3.33;1.90;;;;;;;9.82;35.26;101158.50;5031562;28;20266;-59
2023/04/04 08:38:11;;;;;;;3.50;1.90;;;;;;;10.59;33.58;101163.50;5032397;28;20277;-57
2023/04/04 08:40:37;;;;;;;2.43;1.70;;;;;;;10.35;34.35;101160.06;5026567;28;20275;-58
2023/04/04 08:43:04;;;;;;;4.27;2.47;;;;;;;10.55;33.90;101155.97;5030913;28;20170;-57
2023/04/04 08:45:32;;;;;;;3.00;2.00;;;;;;;10.56;33.77;101173.91;5047705;28;20213;-59
2023/04/04 08:47:59;;;;;;;4.53;1.90;;;;;;;10.69;33.67;101178.59;5048306;28;20178;-58
2023/04/04 08:50:28;;;;;;;2.70;2.20;;;;;;;9.01;35.70;101173.13;5040163;28;20304;-59
2023/04/04 08:52:54;;;;;;;3.10;2.00;;;;;;;9.06;35.71;101173.81;5030556;28;20420;-60
2023/04/04 08:55:20;;;;;;;4.03;2.33;;;;;;;9.36;35.49;101179.72;5047237;28;20479;-59
2023/04/04 08:57:45;;;;;;;2.70;1.77;;;;;;;10.00;35.14;101163.00;5032765;28;20075;-59
2023/04/04 09:00:13;;;;;;;3.13;1.87;;;;;;;9.45;34.87;101170.00;5023598;28;20190;-59
2023/04/04 09:03:08;;;;;;;2.33;1.90;;;;;;;10.74;34.00;101168.94;5045283;28;20261;-58
2023/04/04 09:05:34;;;;;;;3.07;2.07;;;;;;;10.93;32.86;101159.63;5032310;28;20193;-59
2023/04/04 09:08:00;;;;;;;5.43;2.50;;;;;;;10.68;32.82;101164.91;5032315;28;20182;-59
2023/04/04 09:10:25;;;;;;;3.60;2.23;;;;;;;10.57;31.99;101155.00;5024770;28;20233;-58
2023/04/04 09:12:53;;;;;;;3.20;1.90;;;;;;;13.20;29.85;101151.50;5043403;28;20560;-65
2023/04/04 09:15:18;;;;;;;4.17;2.10;;;;;;;12.04;30.42;101161.97;5030804;28;20727;-59
2023/04/04 09:17:43;;;;;;;3.37;2.13;;;;;;;10.53;32.25;101163.75;5031565;28;20421;-59
2023/04/04 09:20:36;;;;;;;4.80;2.23;;;;;;;9.14;34.58;101166.72;5022293;28;20192;-61
2023/04/04 09:23:08;;;;;;;3.70;2.10;;;;;;;10.17;33.46;101161.56;5029985;28;20581;-60
2023/04/04 09:25:35;;;;;;;4.90;2.73;;;;;;;9.37;34.92;101172.84;5032143;28;20628;-60
2023/04/04 09:28:03;;;;;;;2.43;1.80;;;;;;;9.46;34.62;101161.44;5030736;28;20205;-61
2023/04/04 09:30:29;;;;;;;2.77;2.00;;;;;;;11.18;32.46;101153.50;5039514;28;20241;-60
2023/04/04 09:32:56;;;;;;;3.00;1.90;;;;;;;10.16;33.07;101155.59;5043376;28;20174;-61
2023/04/04 09:35:22;;;;;;;3.23;1.90;;;;;;;10.26;33.16;101152.69;5030888;28;20190;-61
2023/04/04 09:37:47;;;;;;;3.33;1.87;;;;;;;11.27;32.22;101147.16;5031763;28;20717;-59
2023/04/04 09:40:13;;;;;;;2.87;2.23;;;;;;;11.16;32.27;101157.03;5023083;28;20174;-59
2023/04/04 09:42:38;;;;;;;2.47;1.93;;;;;;;11.27;31.81;101147.16;5029508;28;20665;-60
2023/04/04 09:45:04;;;;;;;3.80;2.83;;;;;;;11.15;32.58;101158.81;5031303;28;20189;-60
2023/04/04 09:47:32;;;;;;;3.97;1.97;;;;;;;12.07;31.55;101156.69;5031721;28;20259;-60
2023/04/04 09:50:01;;;;;;;4.00;2.00;;;;;;;12.08;31.27;101155.78;5031843;28;20701;-59
2023/04/04 09:52:31;;;;;;;3.07;2.03;;;;;;;11.06;31.52;101154.81;4999872;28;20257;-60
2023/04/04 09:54:58;;;;;;;2.90;2.10;;;;;;;10.92;32.99;101167.41;5026671;28;20193;-60
2023/04/04 09:57:26;;;;;;;3.40;2.20;;;;;;;10.12;33.42;101154.03;5026916;28;20179;-60
2023/04/04 09:59:56;;;;;;;5.57;2.83;;;;;;;10.37;33.38;101158.31;5026493;28;20182;-60
2023/04/04 10:02:21;;;;;;;5.03;2.60;;;;;;;9.42;34.40;101155.53;4984275;28;20304;-68
2023/04/04 10:04:47;;;;;;;2.70;2.10;;;;;;;11.25;32.11;101161.81;5011787;28;20278;-61
2023/04/04 10:07:13;;;;;;;4.33;2.70;;;;;;;10.09;33.30;101151.56;5010135;28;20438;-60
2023/04/04 10:09:39;;;;;;;3.57;2.13;;;;;;;10.53;33.86;101152.59;5011616;28;20170;-59
2023/04/04 10:12:09;;;;;;;2.17;1.70;;;;;;;11.58;32.26;101143.31;5018681;28;20287;-62
2023/04/04 10:14:35;;;;;;;3.42;2.35;;;;;;;14.52;28.98;101139.63;5019373;28;20457;-60
2023/04/04 10:17:07;;;;;;;2.33;1.97;;;;;;;13.94;29.07;101131.47;5024119;28;20712;-61
2023/04/04 10:19:33;;;;;;;3.30;2.10;;;;;;;12.56;30.93;101153.63;5011463;28;20419;-66
2023/04/04 10:22:00;;;;;;;5.07;2.47;;;;;;;11.27;31.67;101136.84;5018986;28;20260;-62
2023/04/04 10:24:25;;;;;;;7.50;2.73;;;;;;;10.71;32.64;101148.50;5011119;28;20699;-60
2023/04/04 10:26:52;;;;;;;4.73;2.40;;;;;;;10.65;32.17;101152.13;5009730;28;20257;-62
2023/04/04 10:29:18;;;;;;;4.73;2.20;;;;;;;10.62;33.28;101145.38;5011591;28;20170;-60
2023/04/04 10:31:48;;;;;;;2.53;2.10;;;;;;;12.84;30.36;101141.22;5013483;28;20254;-60
2023/04/04 10:34:52;;;;;;;6.17;2.43;;;;;;;12.74;29.48;101148.56;5009354;28;20217;-60
2023/04/04 10:37:30;;;;;;;3.43;2.13;;;;;;;9.43;33.08;101141.81;4934273;29;20230;-60
2023/04/04 10:40:06;;;;;;;4.50;2.80;;;;;;;7.17;38.51;101160.06;4950717;29;20201;-61
2023/04/04 10:42:38;;;;;;;4.67;2.43;;;;;;;6.37;41.90;101160.91;4940127;28;20220;-60
2023/04/04 10:45:07;;;;;;;3.57;2.10;;;;;;;6.40;41.22;101148.09;4950462;28;20191;-60
2023/04/04 10:47:33;;;;;;;3.43;2.53;;;;;;;6.58;41.26;101148.56;4934549;29;20204;-64
2023/04/04 10:49:59;;;;;;;3.53;2.67;;;;;;;6.01;41.48;101142.88;4950789;28;20185;-60
2023/04/04 10:52:27;;;;;;;4.53;2.70;;;;;;;5.97;41.73;101134.41;4939291;28;20625;-62
2023/04/04 10:54:56;;;;;;;2.53;2.27;;;;;;;6.07;42.31;101132.53;4950741;28;20177;-60
2023/04/04 10:57:22;;;;;;;2.90;2.53;;;;;;;6.20;41.81;101125.50;4953653;29;20442;-61
2023/04/04 11:00:08;;;;;;;3.57;2.33;;;;;;;6.10;41.94;101142.72;4953283;28;20492;-59
2023/04/04 11:02:56;;;;;;;3.37;2.23;;;;;;;5.34;42.01;101138.03;4952643;28;20371;-58
2023/04/04 11:05:46;;;;;;;2.93;2.40;;;;;;;5.28;42.91;101118.59;4973207;28;20713;-59
2023/04/04 11:08:21;;;;;;;3.57;2.13;;;;;;;5.71;42.50;101117.00;4956731;28;20608;-59
2023/04/04 11:10:48;;;;;;;2.80;2.50;;;;;;;5.90;43.15;101114.13;4969300;28;20238;-59
2023/04/04 11:13:25;;;;;;;5.40;2.63;;;;;;;5.72;42.46;101125.50;5010171;28;20273;-59
2023/04/04 11:16:14;;;;;;;6.97;2.63;;;;;;;5.61;42.73;101115.50;5017176;28;20331;-60
2023/04/04 11:18:44;;;;;;;4.77;2.50;;;;;;;5.77;42.80;101104.13;5019486;28;20194;-61
2023/04/04 11:21:22;;;;;;;3.23;2.70;;;;;;;5.71;42.98;101108.53;5022106;28;20260;-59
2023/04/04 11:23:47;;;;;;;2.70;2.30;;;;;;;5.64;42.32;101112.88;5024670;28;20681;-59
2023/04/04 11:26:17;;;;;;;3.07;2.50;;;;;;;5.59;43.24;101107.84;5014613;28;20172;-60
2023/04/04 11:28:44;;;;;;;4.47;2.40;;;;;;;5.56;43.44;101094.31;5014158;28;20214;-60
2023/04/04 11:31:24;;;;;;;4.30;2.80;;;;;;;5.97;44.25;101095.25;4996271;28;20236;-61
2023/04/04 11:33:59;;;;;;;6.23;2.93;;;;;;;6.08;41.36;101088.25;5029448;28;20217;-60